sensor_id;sensor_type;location;lat;lon;timestamp;P1;durP1;ratioP1;P2;durP2;ratioP2
54123;SDS011;55741;53.252;5.788;2023-07-29T00:00:57;12.82;;;6.97;;
54123;SDS011;55741;53.252;5.788;2023-07-29T00:03:23;14.25;;;7.10;;
54123;SDS011;55741;53.252;5.788;2023-07-29T00:05:48;12.27;;;6.85;;
54123;SDS011;55741;53.252;5.788;2023-07-29T00:08:14;15.40;;;6.43;;
54123;SDS011;55741;53.252;5.788;2023-07-29T00:10:40;15.25;;;6.00;;
54123;SDS011;55741;53.252;5.788;2023-07-29T00:13:06;11.38;;;6.75;;
54123;SDS011;55741;53.252;5.788;2023-07-29T00:15:32;15.68;;;6.47;;
54123;SDS011;55741;53.252;5.788;2023-07-29T00:17:58;9.35;;;5.63;;
54123;SDS011;55741;53.252;5.788;2023-07-29T00:20:24;13.43;;;6.32;;
54123;SDS011;55741;53.252;5.788;2023-07-29T00:22:50;14.95;;;5.95;;
54123;SDS011;55741;53.252;5.788;2023-07-29T00:25:19;12.52;;;5.65;;
54123;SDS011;55741;53.252;5.788;2023-07-29T00:27:45;10.25;;;5.57;;
54123;SDS011;55741;53.252;5.788;2023-07-29T00:30:11;12.82;;;5.93;;
54123;SDS011;55741;53.252;5.788;2023-07-29T00:32:37;16.25;;;5.20;;
54123;SDS011;55741;53.252;5.788;2023-07-29T00:35:03;10.35;;;6.20;;
54123;SDS011;55741;53.252;5.788;2023-07-29T00:37:29;10.73;;;5.53;;
54123;SDS011;55741;53.252;5.788;2023-07-29T00:39:56;11.60;;;5.78;;
54123;SDS011;55741;53.252;5.788;2023-07-29T00:42:22;12.30;;;5.68;;
54123;SDS011;55741;53.252;5.788;2023-07-29T00:44:48;11.95;;;5.80;;
54123;SDS011;55741;53.252;5.788;2023-07-29T00:47:15;12.75;;;6.70;;
54123;SDS011;55741;53.252;5.788;2023-07-29T00:49:44;9.02;;;5.63;;
54123;SDS011;55741;53.252;5.788;2023-07-29T00:52:11;13.27;;;6.20;;
54123;SDS011;55741;53.252;5.788;2023-07-29T00:54:38;13.98;;;6.20;;
54123;SDS011;55741;53.252;5.788;2023-07-29T00:57:05;12.95;;;6.75;;
54123;SDS011;55741;53.252;5.788;2023-07-29T00:59:34;11.45;;;6.18;;
54123;SDS011;55741;53.252;5.788;2023-07-29T01:02:01;10.50;;;6.70;;
54123;SDS011;55741;53.252;5.788;2023-07-29T01:04:27;14.48;;;8.02;;
54123;SDS011;55741;53.252;5.788;2023-07-29T01:06:57;15.05;;;7.50;;
54123;SDS011;55741;53.252;5.788;2023-07-29T01:09:52;12.63;;;7.43;;
54123;SDS011;55741;53.252;5.788;2023-07-29T01:12:47;13.00;;;7.55;;
54123;SDS011;55741;53.252;5.788;2023-07-29T01:15:57;13.25;;;7.25;;
54123;SDS011;55741;53.252;5.788;2023-07-29T01:18:27;13.98;;;7.32;;
54123;SDS011;55741;53.252;5.788;2023-07-29T01:20:58;15.30;;;8.20;;
54123;SDS011;55741;53.252;5.788;2023-07-29T01:23:36;13.52;;;7.72;;
54123;SDS011;55741;53.252;5.788;2023-07-29T01:26:02;13.30;;;8.82;;
54123;SDS011;55741;53.252;5.788;2023-07-29T01:28:28;18.55;;;7.40;;
54123;SDS011;55741;53.252;5.788;2023-07-29T01:33:40;14.10;;;8.27;;
54123;SDS011;55741;53.252;5.788;2023-07-29T01:36:11;13.07;;;8.00;;
54123;SDS011;55741;53.252;5.788;2023-07-29T01:38:43;13.30;;;8.57;;
54123;SDS011;55741;53.252;5.788;2023-07-29T01:41:10;12.98;;;8.88;;
54123;SDS011;55741;53.252;5.788;2023-07-29T01:43:36;15.48;;;8.65;;
54123;SDS011;55741;53.252;5.788;2023-07-29T01:46:10;12.40;;;8.73;;
54123;SDS011;55741;53.252;5.788;2023-07-29T01:48:41;14.18;;;8.43;;
54123;SDS011;55741;53.252;5.788;2023-07-29T01:51:07;13.82;;;9.30;;
54123;SDS011;55741;53.252;5.788;2023-07-29T01:53:34;13.77;;;9.30;;
54123;SDS011;55741;53.252;5.788;2023-07-29T01:56:00;16.40;;;9.10;;
54123;SDS011;55741;53.252;5.788;2023-07-29T01:58:27;15.43;;;8.63;;
54123;SDS011;55741;53.252;5.788;2023-07-29T02:00:53;14.52;;;9.02;;
54123;SDS011;55741;53.252;5.788;2023-07-29T02:03:19;17.85;;;9.73;;
54123;SDS011;55741;53.252;5.788;2023-07-29T02:05:45;16.63;;;9.32;;
54123;SDS011;55741;53.252;5.788;2023-07-29T02:08:10;12.80;;;8.75;;
54123;SDS011;55741;53.252;5.788;2023-07-29T02:10:36;14.30;;;8.25;;
54123;SDS011;55741;53.252;5.788;2023-07-29T02:13:02;15.10;;;8.00;;
54123;SDS011;55741;53.252;5.788;2023-07-29T02:15:29;14.38;;;8.57;;
54123;SDS011;55741;53.252;5.788;2023-07-29T02:17:54;17.35;;;8.25;;
54123;SDS011;55741;53.252;5.788;2023-07-29T02:20:20;12.10;;;7.82;;
54123;SDS011;55741;53.252;5.788;2023-07-29T02:22:46;20.30;;;8.95;;
54123;SDS011;55741;53.252;5.788;2023-07-29T02:25:13;12.93;;;7.53;;
54123;SDS011;55741;53.252;5.788;2023-07-29T02:27:40;15.73;;;7.88;;
54123;SDS011;55741;53.252;5.788;2023-07-29T02:30:06;13.35;;;7.15;;
54123;SDS011;55741;53.252;5.788;2023-07-29T02:32:34;15.60;;;7.65;;
54123;SDS011;55741;53.252;5.788;2023-07-29T02:35:00;14.65;;;7.30;;
54123;SDS011;55741;53.252;5.788;2023-07-29T02:37:26;12.10;;;6.35;;
54123;SDS011;55741;53.252;5.788;2023-07-29T02:39:53;16.23;;;7.68;;
54123;SDS011;55741;53.252;5.788;2023-07-29T02:42:19;9.23;;;6.88;;
54123;SDS011;55741;53.252;5.788;2023-07-29T02:44:44;13.93;;;7.25;;
54123;SDS011;55741;53.252;5.788;2023-07-29T02:47:10;14.07;;;8.55;;
54123;SDS011;55741;53.252;5.788;2023-07-29T02:49:38;14.93;;;7.05;;
54123;SDS011;55741;53.252;5.788;2023-07-29T02:52:04;11.30;;;7.22;;
54123;SDS011;55741;53.252;5.788;2023-07-29T02:54:30;15.02;;;8.27;;
54123;SDS011;55741;53.252;5.788;2023-07-29T02:56:56;13.45;;;7.13;;
54123;SDS011;55741;53.252;5.788;2023-07-29T02:59:21;15.30;;;7.50;;
54123;SDS011;55741;53.252;5.788;2023-07-29T03:01:47;13.68;;;7.45;;
54123;SDS011;55741;53.252;5.788;2023-07-29T03:04:13;12.98;;;6.82;;
54123;SDS011;55741;53.252;5.788;2023-07-29T03:06:39;13.40;;;7.07;;
54123;SDS011;55741;53.252;5.788;2023-07-29T03:09:05;14.68;;;8.10;;
54123;SDS011;55741;53.252;5.788;2023-07-29T03:11:30;10.95;;;7.00;;
54123;SDS011;55741;53.252;5.788;2023-07-29T03:13:56;12.73;;;7.00;;
54123;SDS011;55741;53.252;5.788;2023-07-29T03:16:22;11.48;;;6.18;;
54123;SDS011;55741;53.252;5.788;2023-07-29T03:18:49;11.30;;;6.60;;
54123;SDS011;55741;53.252;5.788;2023-07-29T03:21:15;14.00;;;6.75;;
54123;SDS011;55741;53.252;5.788;2023-07-29T03:23:41;12.50;;;6.55;;
54123;SDS011;55741;53.252;5.788;2023-07-29T03:26:07;11.27;;;6.65;;
54123;SDS011;55741;53.252;5.788;2023-07-29T03:28:37;16.88;;;7.53;;
54123;SDS011;55741;53.252;5.788;2023-07-29T03:31:05;14.23;;;6.93;;
54123;SDS011;55741;53.252;5.788;2023-07-29T03:33:31;14.70;;;6.15;;
54123;SDS011;55741;53.252;5.788;2023-07-29T03:35:57;15.98;;;6.55;;
54123;SDS011;55741;53.252;5.788;2023-07-29T03:38:23;15.23;;;6.97;;
54123;SDS011;55741;53.252;5.788;2023-07-29T03:40:50;13.32;;;6.70;;
54123;SDS011;55741;53.252;5.788;2023-07-29T03:43:16;11.85;;;5.85;;
54123;SDS011;55741;53.252;5.788;2023-07-29T03:45:42;11.60;;;6.00;;
54123;SDS011;55741;53.252;5.788;2023-07-29T03:48:07;12.70;;;6.40;;
54123;SDS011;55741;53.252;5.788;2023-07-29T03:50:35;11.00;;;5.53;;
54123;SDS011;55741;53.252;5.788;2023-07-29T03:53:02;15.23;;;5.97;;
54123;SDS011;55741;53.252;5.788;2023-07-29T03:55:28;11.63;;;6.10;;
54123;SDS011;55741;53.252;5.788;2023-07-29T03:57:56;11.35;;;6.15;;
54123;SDS011;55741;53.252;5.788;2023-07-29T04:00:22;10.25;;;5.75;;
54123;SDS011;55741;53.252;5.788;2023-07-29T04:02:48;12.15;;;5.53;;
54123;SDS011;55741;53.252;5.788;2023-07-29T04:05:14;11.50;;;5.18;;
54123;SDS011;55741;53.252;5.788;2023-07-29T04:07:40;13.68;;;5.05;;
54123;SDS011;55741;53.252;5.788;2023-07-29T04:10:06;9.80;;;5.60;;
54123;SDS011;55741;53.252;5.788;2023-07-29T04:12:32;12.75;;;6.15;;
54123;SDS011;55741;53.252;5.788;2023-07-29T04:14:58;16.90;;;5.93;;
54123;SDS011;55741;53.252;5.788;2023-07-29T04:17:24;13.63;;;5.03;;
54123;SDS011;55741;53.252;5.788;2023-07-29T04:19:50;11.75;;;5.13;;
54123;SDS011;55741;53.252;5.788;2023-07-29T04:22:16;8.57;;;5.22;;
54123;SDS011;55741;53.252;5.788;2023-07-29T04:24:42;12.27;;;6.45;;
54123;SDS011;55741;53.252;5.788;2023-07-29T04:27:08;15.32;;;5.57;;
54123;SDS011;55741;53.252;5.788;2023-07-29T04:29:34;14.82;;;5.78;;
54123;SDS011;55741;53.252;5.788;2023-07-29T04:32:01;13.77;;;6.30;;
54123;SDS011;55741;53.252;5.788;2023-07-29T04:34:28;12.73;;;6.03;;
54123;SDS011;55741;53.252;5.788;2023-07-29T04:36:53;13.65;;;5.88;;
54123;SDS011;55741;53.252;5.788;2023-07-29T04:39:19;10.80;;;5.47;;
54123;SDS011;55741;53.252;5.788;2023-07-29T04:41:45;13.60;;;5.82;;
54123;SDS011;55741;53.252;5.788;2023-07-29T04:44:11;10.52;;;5.28;;
54123;SDS011;55741;53.252;5.788;2023-07-29T04:46:37;14.35;;;5.32;;
54123;SDS011;55741;53.252;5.788;2023-07-29T04:49:04;10.27;;;4.90;;
54123;SDS011;55741;53.252;5.788;2023-07-29T04:51:31;11.15;;;5.10;;
54123;SDS011;55741;53.252;5.788;2023-07-29T04:53:57;13.35;;;4.55;;
54123;SDS011;55741;53.252;5.788;2023-07-29T04:56:24;9.55;;;4.97;;
54123;SDS011;55741;53.252;5.788;2023-07-29T04:58:50;10.20;;;5.20;;
54123;SDS011;55741;53.252;5.788;2023-07-29T05:01:15;12.25;;;4.20;;
54123;SDS011;55741;53.252;5.788;2023-07-29T05:03:41;9.75;;;4.82;;
54123;SDS011;55741;53.252;5.788;2023-07-29T05:06:07;10.40;;;4.53;;
54123;SDS011;55741;53.252;5.788;2023-07-29T05:08:33;13.85;;;4.70;;
54123;SDS011;55741;53.252;5.788;2023-07-29T05:10:59;13.40;;;4.50;;
54123;SDS011;55741;53.252;5.788;2023-07-29T05:13:25;13.23;;;5.13;;
54123;SDS011;55741;53.252;5.788;2023-07-29T05:15:50;12.07;;;5.05;;
54123;SDS011;55741;53.252;5.788;2023-07-29T05:18:16;11.40;;;4.60;;
54123;SDS011;55741;53.252;5.788;2023-07-29T05:20:42;9.68;;;4.45;;
54123;SDS011;55741;53.252;5.788;2023-07-29T05:23:08;10.82;;;4.30;;
54123;SDS011;55741;53.252;5.788;2023-07-29T05:25:34;12.77;;;4.90;;
54123;SDS011;55741;53.252;5.788;2023-07-29T05:28:00;14.15;;;6.18;;
54123;SDS011;55741;53.252;5.788;2023-07-29T05:30:27;10.68;;;4.47;;
54123;SDS011;55741;53.252;5.788;2023-07-29T05:32:56;10.90;;;5.05;;
54123;SDS011;55741;53.252;5.788;2023-07-29T05:35:23;13.77;;;5.25;;
54123;SDS011;55741;53.252;5.788;2023-07-29T05:37:49;11.00;;;5.07;;
54123;SDS011;55741;53.252;5.788;2023-07-29T05:40:15;14.45;;;4.38;;
54123;SDS011;55741;53.252;5.788;2023-07-29T05:42:41;13.23;;;4.80;;
54123;SDS011;55741;53.252;5.788;2023-07-29T05:45:07;15.20;;;5.57;;
54123;SDS011;55741;53.252;5.788;2023-07-29T05:47:33;12.18;;;4.80;;
54123;SDS011;55741;53.252;5.788;2023-07-29T05:49:59;8.60;;;4.82;;
54123;SDS011;55741;53.252;5.788;2023-07-29T05:52:31;12.18;;;4.93;;
54123;SDS011;55741;53.252;5.788;2023-07-29T05:54:57;10.35;;;4.88;;
54123;SDS011;55741;53.252;5.788;2023-07-29T05:57:23;13.77;;;5.25;;
54123;SDS011;55741;53.252;5.788;2023-07-29T05:59:49;11.43;;;4.95;;
54123;SDS011;55741;53.252;5.788;2023-07-29T06:02:15;16.45;;;5.55;;
54123;SDS011;55741;53.252;5.788;2023-07-29T06:04:41;15.23;;;6.18;;
54123;SDS011;55741;53.252;5.788;2023-07-29T06:07:07;9.18;;;4.30;;
54123;SDS011;55741;53.252;5.788;2023-07-29T06:09:33;15.13;;;5.55;;
54123;SDS011;55741;53.252;5.788;2023-07-29T06:11:58;13.85;;;5.50;;
54123;SDS011;55741;53.252;5.788;2023-07-29T06:14:24;14.63;;;5.50;;
54123;SDS011;55741;53.252;5.788;2023-07-29T06:16:50;14.57;;;4.80;;
54123;SDS011;55741;53.252;5.788;2023-07-29T06:19:17;13.15;;;5.22;;
54123;SDS011;55741;53.252;5.788;2023-07-29T06:21:43;15.07;;;5.35;;
54123;SDS011;55741;53.252;5.788;2023-07-29T06:24:09;16.98;;;5.90;;
54123;SDS011;55741;53.252;5.788;2023-07-29T06:26:35;10.57;;;5.20;;
54123;SDS011;55741;53.252;5.788;2023-07-29T06:29:01;18.38;;;5.20;;
54123;SDS011;55741;53.252;5.788;2023-07-29T06:31:26;18.65;;;6.38;;
54123;SDS011;55741;53.252;5.788;2023-07-29T06:33:52;17.52;;;5.00;;
54123;SDS011;55741;53.252;5.788;2023-07-29T06:36:19;13.85;;;5.97;;
54123;SDS011;55741;53.252;5.788;2023-07-29T06:38:45;13.10;;;5.10;;
54123;SDS011;55741;53.252;5.788;2023-07-29T06:41:11;15.60;;;5.85;;
54123;SDS011;55741;53.252;5.788;2023-07-29T06:43:37;14.25;;;4.78;;
54123;SDS011;55741;53.252;5.788;2023-07-29T06:46:03;9.55;;;4.85;;
54123;SDS011;55741;53.252;5.788;2023-07-29T06:48:29;18.98;;;6.45;;
54123;SDS011;55741;53.252;5.788;2023-07-29T06:50:55;11.80;;;5.00;;
54123;SDS011;55741;53.252;5.788;2023-07-29T06:53:27;13.20;;;5.30;;
54123;SDS011;55741;53.252;5.788;2023-07-29T06:55:53;14.00;;;5.50;;
54123;SDS011;55741;53.252;5.788;2023-07-29T06:58:19;11.32;;;5.13;;
54123;SDS011;55741;53.252;5.788;2023-07-29T07:00:45;16.33;;;5.70;;
54123;SDS011;55741;53.252;5.788;2023-07-29T07:03:10;17.48;;;5.60;;
54123;SDS011;55741;53.252;5.788;2023-07-29T07:05:36;11.48;;;4.32;;
54123;SDS011;55741;53.252;5.788;2023-07-29T07:08:02;12.82;;;5.38;;
54123;SDS011;55741;53.252;5.788;2023-07-29T07:10:28;15.38;;;5.22;;
54123;SDS011;55741;53.252;5.788;2023-07-29T07:12:54;18.17;;;5.28;;
54123;SDS011;55741;53.252;5.788;2023-07-29T07:15:20;13.85;;;4.85;;
54123;SDS011;55741;53.252;5.788;2023-07-29T07:17:46;14.35;;;4.47;;
54123;SDS011;55741;53.252;5.788;2023-07-29T07:20:12;12.63;;;4.50;;
54123;SDS011;55741;53.252;5.788;2023-07-29T07:22:38;13.95;;;4.93;;
54123;SDS011;55741;53.252;5.788;2023-07-29T07:25:04;14.55;;;4.53;;
54123;SDS011;55741;53.252;5.788;2023-07-29T07:27:30;14.45;;;4.18;;
54123;SDS011;55741;53.252;5.788;2023-07-29T07:29:56;13.63;;;4.00;;
54123;SDS011;55741;53.252;5.788;2023-07-29T07:32:22;9.27;;;4.18;;
54123;SDS011;55741;53.252;5.788;2023-07-29T07:34:48;11.48;;;3.97;;
54123;SDS011;55741;53.252;5.788;2023-07-29T07:37:13;15.20;;;4.30;;
54123;SDS011;55741;53.252;5.788;2023-07-29T07:39:39;10.88;;;3.70;;
54123;SDS011;55741;53.252;5.788;2023-07-29T07:42:06;12.82;;;4.50;;
54123;SDS011;55741;53.252;5.788;2023-07-29T07:44:32;13.38;;;4.78;;
54123;SDS011;55741;53.252;5.788;2023-07-29T07:46:57;10.98;;;3.90;;
54123;SDS011;55741;53.252;5.788;2023-07-29T07:49:23;15.07;;;3.92;;
54123;SDS011;55741;53.252;5.788;2023-07-29T07:51:49;10.43;;;3.42;;
54123;SDS011;55741;53.252;5.788;2023-07-29T07:54:16;12.25;;;3.42;;
54123;SDS011;55741;53.252;5.788;2023-07-29T07:56:42;9.30;;;3.35;;
54123;SDS011;55741;53.252;5.788;2023-07-29T07:59:08;13.00;;;3.75;;
54123;SDS011;55741;53.252;5.788;2023-07-29T08:01:40;14.07;;;3.88;;
54123;SDS011;55741;53.252;5.788;2023-07-29T08:04:06;9.48;;;3.33;;
54123;SDS011;55741;53.252;5.788;2023-07-29T08:06:32;10.57;;;3.45;;
54123;SDS011;55741;53.252;5.788;2023-07-29T08:08:58;9.23;;;3.20;;
54123;SDS011;55741;53.252;5.788;2023-07-29T08:11:24;11.35;;;3.30;;
54123;SDS011;55741;53.252;5.788;2023-07-29T08:13:50;8.18;;;2.78;;
54123;SDS011;55741;53.252;5.788;2023-07-29T08:16:17;8.93;;;3.15;;
54123;SDS011;55741;53.252;5.788;2023-07-29T08:18:42;10.02;;;3.47;;
54123;SDS011;55741;53.252;5.788;2023-07-29T08:21:09;9.38;;;2.75;;
54123;SDS011;55741;53.252;5.788;2023-07-29T08:23:35;10.43;;;3.03;;
54123;SDS011;55741;53.252;5.788;2023-07-29T08:26:02;11.98;;;2.85;;
54123;SDS011;55741;53.252;5.788;2023-07-29T08:30:57;8.73;;;2.85;;
54123;SDS011;55741;53.252;5.788;2023-07-29T08:33:23;10.45;;;3.33;;
54123;SDS011;55741;53.252;5.788;2023-07-29T08:35:50;7.93;;;2.58;;
54123;SDS011;55741;53.252;5.788;2023-07-29T08:38:16;6.63;;;2.65;;
54123;SDS011;55741;53.252;5.788;2023-07-29T08:40:46;8.07;;;2.33;;
54123;SDS011;55741;53.252;5.788;2023-07-29T08:43:30;8.77;;;2.45;;
54123;SDS011;55741;53.252;5.788;2023-07-29T08:45:58;7.55;;;3.13;;
54123;SDS011;55741;53.252;5.788;2023-07-29T08:48:39;8.93;;;2.72;;
54123;SDS011;55741;53.252;5.788;2023-07-29T08:51:05;10.52;;;3.38;;
54123;SDS011;55741;53.252;5.788;2023-07-29T08:53:34;6.03;;;2.55;;
54123;SDS011;55741;53.252;5.788;2023-07-29T08:56:02;8.25;;;2.70;;
54123;SDS011;55741;53.252;5.788;2023-07-29T08:58:29;6.85;;;2.38;;
54123;SDS011;55741;53.252;5.788;2023-07-29T09:00:54;8.75;;;3.33;;
54123;SDS011;55741;53.252;5.788;2023-07-29T09:03:20;10.48;;;2.97;;
54123;SDS011;55741;53.252;5.788;2023-07-29T09:05:47;9.35;;;3.15;;
54123;SDS011;55741;53.252;5.788;2023-07-29T09:08:13;7.75;;;3.25;;
54123;SDS011;55741;53.252;5.788;2023-07-29T09:10:39;9.65;;;2.70;;
54123;SDS011;55741;53.252;5.788;2023-07-29T09:13:06;10.75;;;2.58;;
54123;SDS011;55741;53.252;5.788;2023-07-29T09:15:34;6.55;;;2.38;;
54123;SDS011;55741;53.252;5.788;2023-07-29T09:18:10;19.95;;;3.10;;
54123;SDS011;55741;53.252;5.788;2023-07-29T09:20:37;8.52;;;2.70;;
54123;SDS011;55741;53.252;5.788;2023-07-29T09:23:06;6.72;;;2.60;;
54123;SDS011;55741;53.252;5.788;2023-07-29T09:25:33;9.60;;;3.00;;
54123;SDS011;55741;53.252;5.788;2023-07-29T09:27:59;6.32;;;2.65;;
54123;SDS011;55741;53.252;5.788;2023-07-29T09:30:26;8.45;;;2.50;;
54123;SDS011;55741;53.252;5.788;2023-07-29T09:32:56;5.18;;;2.78;;
54123;SDS011;55741;53.252;5.788;2023-07-29T09:35:23;6.82;;;2.30;;
54123;SDS011;55741;53.252;5.788;2023-07-29T09:37:51;6.55;;;2.35;;
54123;SDS011;55741;53.252;5.788;2023-07-29T09:40:17;8.35;;;2.70;;
54123;SDS011;55741;53.252;5.788;2023-07-29T09:45:23;5.75;;;2.20;;
54123;SDS011;55741;53.252;5.788;2023-07-29T09:47:50;7.93;;;2.90;;
54123;SDS011;55741;53.252;5.788;2023-07-29T09:50:23;5.97;;;2.35;;
54123;SDS011;55741;53.252;5.788;2023-07-29T09:52:50;6.45;;;2.00;;
54123;SDS011;55741;53.252;5.788;2023-07-29T09:55:17;5.55;;;2.38;;
54123;SDS011;55741;53.252;5.788;2023-07-29T09:57:46;5.88;;;1.90;;
54123;SDS011;55741;53.252;5.788;2023-07-29T10:00:12;5.30;;;2.13;;
54123;SDS011;55741;53.252;5.788;2023-07-29T10:02:39;5.78;;;2.15;;
54123;SDS011;55741;53.252;5.788;2023-07-29T10:05:06;7.15;;;2.17;;
54123;SDS011;55741;53.252;5.788;2023-07-29T10:07:36;5.63;;;2.45;;
54123;SDS011;55741;53.252;5.788;2023-07-29T10:10:03;6.00;;;2.03;;
54123;SDS011;55741;53.252;5.788;2023-07-29T10:12:33;7.72;;;3.55;;
54123;SDS011;55741;53.252;5.788;2023-07-29T10:15:02;6.95;;;2.20;;
54123;SDS011;55741;53.252;5.788;2023-07-29T10:17:40;7.10;;;2.50;;
54123;SDS011;55741;53.252;5.788;2023-07-29T10:20:07;6.70;;;2.65;;
54123;SDS011;55741;53.252;5.788;2023-07-29T10:22:38;8.18;;;2.25;;
54123;SDS011;55741;53.252;5.788;2023-07-29T10:25:09;7.43;;;2.20;;
54123;SDS011;55741;53.252;5.788;2023-07-29T10:27:52;4.95;;;1.90;;
54123;SDS011;55741;53.252;5.788;2023-07-29T10:30:22;4.53;;;1.90;;
54123;SDS011;55741;53.252;5.788;2023-07-29T10:33:03;6.88;;;2.33;;
54123;SDS011;55741;53.252;5.788;2023-07-29T10:35:40;6.30;;;2.40;;
54123;SDS011;55741;53.252;5.788;2023-07-29T10:38:06;4.78;;;2.00;;
54123;SDS011;55741;53.252;5.788;2023-07-29T10:43:18;4.35;;;2.30;;
54123;SDS011;55741;53.252;5.788;2023-07-29T10:45:49;7.78;;;2.53;;
54123;SDS011;55741;53.252;5.788;2023-07-29T10:53:55;8.60;;;2.85;;
54123;SDS011;55741;53.252;5.788;2023-07-29T10:56:26;9.25;;;3.03;;
54123;SDS011;55741;53.252;5.788;2023-07-29T10:58:55;6.80;;;2.60;;
54123;SDS011;55741;53.252;5.788;2023-07-29T11:01:26;7.63;;;2.28;;
54123;SDS011;55741;53.252;5.788;2023-07-29T11:17:42;6.88;;;2.08;;
54123;SDS011;55741;53.252;5.788;2023-07-29T11:20:08;7.00;;;2.00;;
54123;SDS011;55741;53.252;5.788;2023-07-29T11:22:35;6.75;;;2.42;;
54123;SDS011;55741;53.252;5.788;2023-07-29T11:25:02;5.30;;;2.00;;
54123;SDS011;55741;53.252;5.788;2023-07-29T11:27:28;6.45;;;2.22;;
54123;SDS011;55741;53.252;5.788;2023-07-29T11:29:58;6.82;;;2.17;;
54123;SDS011;55741;53.252;5.788;2023-07-29T11:32:30;3.42;;;1.85;;
54123;SDS011;55741;53.252;5.788;2023-07-29T11:35:00;4.80;;;2.10;;
54123;SDS011;55741;53.252;5.788;2023-07-29T11:37:30;5.75;;;2.38;;
54123;SDS011;55741;53.252;5.788;2023-07-29T11:39:58;8.10;;;2.63;;
54123;SDS011;55741;53.252;5.788;2023-07-29T11:42:27;6.00;;;2.30;;
54123;SDS011;55741;53.252;5.788;2023-07-29T11:44:56;7.47;;;2.67;;
54123;SDS011;55741;53.252;5.788;2023-07-29T11:47:23;5.18;;;2.00;;
54123;SDS011;55741;53.252;5.788;2023-07-29T11:49:50;5.00;;;1.98;;
54123;SDS011;55741;53.252;5.788;2023-07-29T11:52:15;4.53;;;2.10;;
54123;SDS011;55741;53.252;5.788;2023-07-29T11:54:45;7.05;;;2.58;;
54123;SDS011;55741;53.252;5.788;2023-07-29T11:57:14;9.30;;;2.45;;
54123;SDS011;55741;53.252;5.788;2023-07-29T11:59:43;5.82;;;2.17;;
54123;SDS011;55741;53.252;5.788;2023-07-29T12:02:13;6.07;;;2.13;;
54123;SDS011;55741;53.252;5.788;2023-07-29T12:04:44;6.80;;;2.35;;
54123;SDS011;55741;53.252;5.788;2023-07-29T12:07:12;4.47;;;2.10;;
54123;SDS011;55741;53.252;5.788;2023-07-29T12:09:39;5.25;;;2.40;;
54123;SDS011;55741;53.252;5.788;2023-07-29T12:12:06;5.80;;;2.20;;
54123;SDS011;55741;53.252;5.788;2023-07-29T12:14:33;7.47;;;2.53;;
54123;SDS011;55741;53.252;5.788;2023-07-29T12:17:02;7.63;;;2.50;;
54123;SDS011;55741;53.252;5.788;2023-07-29T12:19:32;6.75;;;2.58;;
54123;SDS011;55741;53.252;5.788;2023-07-29T12:22:00;8.63;;;2.38;;
54123;SDS011;55741;53.252;5.788;2023-07-29T12:24:30;8.45;;;2.45;;
54123;SDS011;55741;53.252;5.788;2023-07-29T12:26:56;8.07;;;2.60;;
54123;SDS011;55741;53.252;5.788;2023-07-29T12:29:23;7.45;;;2.50;;
54123;SDS011;55741;53.252;5.788;2023-07-29T12:31:49;13.00;;;3.13;;
54123;SDS011;55741;53.252;5.788;2023-07-29T12:34:24;8.13;;;2.90;;
54123;SDS011;55741;53.252;5.788;2023-07-29T12:36:52;12.50;;;2.83;;
54123;SDS011;55741;53.252;5.788;2023-07-29T12:39:20;7.60;;;2.95;;
54123;SDS011;55741;53.252;5.788;2023-07-29T12:41:46;7.93;;;3.63;;
54123;SDS011;55741;53.252;5.788;2023-07-29T12:44:13;6.18;;;2.95;;
54123;SDS011;55741;53.252;5.788;2023-07-29T12:46:42;10.02;;;2.85;;
54123;SDS011;55741;53.252;5.788;2023-07-29T12:49:08;6.55;;;2.83;;
54123;SDS011;55741;53.252;5.788;2023-07-29T12:51:35;6.43;;;2.55;;
54123;SDS011;55741;53.252;5.788;2023-07-29T12:54:04;7.13;;;2.83;;
54123;SDS011;55741;53.252;5.788;2023-07-29T12:56:33;7.00;;;2.72;;
54123;SDS011;55741;53.252;5.788;2023-07-29T13:01:36;6.25;;;3.20;;
54123;SDS011;55741;53.252;5.788;2023-07-29T13:04:04;10.05;;;2.92;;
54123;SDS011;55741;53.252;5.788;2023-07-29T13:06:35;4.75;;;2.33;;
54123;SDS011;55741;53.252;5.788;2023-07-29T13:09:11;10.35;;;2.72;;
54123;SDS011;55741;53.252;5.788;2023-07-29T13:11:43;6.78;;;2.90;;
54123;SDS011;55741;53.252;5.788;2023-07-29T13:14:09;7.13;;;2.67;;
54123;SDS011;55741;53.252;5.788;2023-07-29T13:16:37;9.90;;;3.50;;
54123;SDS011;55741;53.252;5.788;2023-07-29T13:19:03;9.00;;;2.75;;
54123;SDS011;55741;53.252;5.788;2023-07-29T13:21:32;8.45;;;2.85;;
54123;SDS011;55741;53.252;5.788;2023-07-29T13:23:58;10.32;;;3.53;;
54123;SDS011;55741;53.252;5.788;2023-07-29T13:26:26;6.60;;;2.80;;
54123;SDS011;55741;53.252;5.788;2023-07-29T13:29:02;8.55;;;2.90;;
54123;SDS011;55741;53.252;5.788;2023-07-29T13:31:30;7.15;;;2.90;;
54123;SDS011;55741;53.252;5.788;2023-07-29T13:34:00;8.15;;;3.00;;
54123;SDS011;55741;53.252;5.788;2023-07-29T13:36:26;8.70;;;3.08;;
54123;SDS011;55741;53.252;5.788;2023-07-29T13:38:52;7.63;;;3.05;;
54123;SDS011;55741;53.252;5.788;2023-07-29T13:41:18;9.27;;;3.42;;
54123;SDS011;55741;53.252;5.788;2023-07-29T13:43:44;11.88;;;3.08;;
54123;SDS011;55741;53.252;5.788;2023-07-29T13:46:10;6.60;;;3.08;;
54123;SDS011;55741;53.252;5.788;2023-07-29T13:48:36;7.93;;;3.25;;
54123;SDS011;55741;53.252;5.788;2023-07-29T13:51:01;12.35;;;3.33;;
54123;SDS011;55741;53.252;5.788;2023-07-29T13:53:27;11.35;;;3.33;;
54123;SDS011;55741;53.252;5.788;2023-07-29T13:55:53;10.50;;;3.53;;
54123;SDS011;55741;53.252;5.788;2023-07-29T13:58:19;8.77;;;2.88;;
54123;SDS011;55741;53.252;5.788;2023-07-29T14:00:45;5.97;;;3.25;;
54123;SDS011;55741;53.252;5.788;2023-07-29T14:03:12;11.55;;;3.20;;
54123;SDS011;55741;53.252;5.788;2023-07-29T14:05:38;9.57;;;3.28;;
54123;SDS011;55741;53.252;5.788;2023-07-29T14:08:04;7.82;;;3.05;;
54123;SDS011;55741;53.252;5.788;2023-07-29T14:10:30;14.38;;;3.28;;
54123;SDS011;55741;53.252;5.788;2023-07-29T14:12:56;7.55;;;3.10;;
54123;SDS011;55741;53.252;5.788;2023-07-29T14:15:21;8.30;;;3.28;;
54123;SDS011;55741;53.252;5.788;2023-07-29T14:17:48;8.90;;;3.13;;
54123;SDS011;55741;53.252;5.788;2023-07-29T14:20:13;8.10;;;2.85;;
54123;SDS011;55741;53.252;5.788;2023-07-29T14:22:39;7.00;;;2.72;;
54123;SDS011;55741;53.252;5.788;2023-07-29T14:25:05;6.10;;;2.70;;
54123;SDS011;55741;53.252;5.788;2023-07-29T14:27:32;4.30;;;1.90;;
54123;SDS011;55741;53.252;5.788;2023-07-29T14:29:58;9.07;;;2.47;;
54123;SDS011;55741;53.252;5.788;2023-07-29T14:32:24;6.15;;;2.17;;
54123;SDS011;55741;53.252;5.788;2023-07-29T14:34:52;5.03;;;1.73;;
54123;SDS011;55741;53.252;5.788;2023-07-29T14:37:18;4.15;;;2.15;;
54123;SDS011;55741;53.252;5.788;2023-07-29T14:39:44;7.68;;;2.15;;
54123;SDS011;55741;53.252;5.788;2023-07-29T14:42:10;6.97;;;2.38;;
54123;SDS011;55741;53.252;5.788;2023-07-29T14:44:36;7.43;;;2.45;;
54123;SDS011;55741;53.252;5.788;2023-07-29T14:47:01;6.53;;;2.70;;
54123;SDS011;55741;53.252;5.788;2023-07-29T14:49:27;8.23;;;2.45;;
54123;SDS011;55741;53.252;5.788;2023-07-29T14:51:53;9.02;;;2.75;;
54123;SDS011;55741;53.252;5.788;2023-07-29T14:54:20;7.97;;;2.92;;
54123;SDS011;55741;53.252;5.788;2023-07-29T14:56:46;7.53;;;2.83;;
54123;SDS011;55741;53.252;5.788;2023-07-29T14:59:12;6.60;;;2.50;;
54123;SDS011;55741;53.252;5.788;2023-07-29T15:01:38;7.15;;;2.78;;
54123;SDS011;55741;53.252;5.788;2023-07-29T15:04:05;6.35;;;2.35;;
54123;SDS011;55741;53.252;5.788;2023-07-29T15:06:31;5.05;;;2.20;;
54123;SDS011;55741;53.252;5.788;2023-07-29T15:08:57;6.32;;;2.80;;
54123;SDS011;55741;53.252;5.788;2023-07-29T15:11:25;6.85;;;2.33;;
54123;SDS011;55741;53.252;5.788;2023-07-29T15:13:51;4.32;;;1.85;;